sensor_id;sensor_type;location;lat;lon;timestamp;temperature;humidity
43581;DHT22;29175;51.030;4.606;2023-01-24T00:00:26;4.10;99.90
43581;DHT22;29175;51.030;4.606;2023-01-24T00:02:51;4.20;99.90
43581;DHT22;29175;51.030;4.606;2023-01-24T00:05:17;4.10;99.90
43581;DHT22;29175;51.030;4.606;2023-01-24T00:07:43;4.00;99.90
43581;DHT22;29175;51.030;4.606;2023-01-24T00:10:10;4.30;99.90
43581;DHT22;29175;51.030;4.606;2023-01-24T00:12:36;4.20;99.90
43581;DHT22;29175;51.030;4.606;2023-01-24T00:15:02;4.10;99.90
43581;DHT22;29175;51.030;4.606;2023-01-24T00:17:28;4.20;99.90
43581;DHT22;29175;51.030;4.606;2023-01-24T00:19:53;4.10;99.90
43581;DHT22;29175;51.030;4.606;2023-01-24T00:22:19;4.00;99.90
43581;DHT22;29175;51.030;4.606;2023-01-24T00:24:45;4.10;99.90
43581;DHT22;29175;51.030;4.606;2023-01-24T00:27:11;4.10;99.90
43581;DHT22;29175;51.030;4.606;2023-01-24T00:29:37;4.30;99.90
43581;DHT22;29175;51.030;4.606;2023-01-24T00:32:03;4.40;99.90
43581;DHT22;29175;51.030;4.606;2023-01-24T00:34:29;4.40;99.90
43581;DHT22;29175;51.030;4.606;2023-01-24T00:36:55;4.40;99.90
43581;DHT22;29175;51.030;4.606;2023-01-24T00:39:20;4.30;99.90
43581;DHT22;29175;51.030;4.606;2023-01-24T00:41:46;4.30;99.90
43581;DHT22;29175;51.030;4.606;2023-01-24T00:44:12;4.10;99.90
43581;DHT22;29175;51.030;4.606;2023-01-24T00:46:38;4.10;99.90
43581;DHT22;29175;51.030;4.606;2023-01-24T00:49:04;4.20;99.90
43581;DHT22;29175;51.030;4.606;2023-01-24T00:51:29;4.10;99.90
43581;DHT22;29175;51.030;4.606;2023-01-24T00:53:55;4.30;99.90
43581;DHT22;29175;51.030;4.606;2023-01-24T00:56:21;4.30;99.90
43581;DHT22;29175;51.030;4.606;2023-01-24T00:58:47;4.30;99.90
43581;DHT22;29175;51.030;4.606;2023-01-24T01:01:13;4.40;99.90
43581;DHT22;29175;51.030;4.606;2023-01-24T01:03:38;4.60;99.90
43581;DHT22;29175;51.030;4.606;2023-01-24T01:06:07;4.50;99.90
43581;DHT22;29175;51.030;4.606;2023-01-24T01:08:33;4.50;99.90
43581;DHT22;29175;51.030;4.606;2023-01-24T01:11:00;4.50;99.90
43581;DHT22;29175;51.030;4.606;2023-01-24T01:13:26;4.50;99.90
43581;DHT22;29175;51.030;4.606;2023-01-24T01:16:02;4.40;99.90
43581;DHT22;29175;51.030;4.606;2023-01-24T01:18:28;4.10;99.90
43581;DHT22;29175;51.030;4.606;2023-01-24T01:20:54;4.00;99.90
43581;DHT22;29175;51.030;4.606;2023-01-24T01:23:20;4.10;99.90
43581;DHT22;29175;51.030;4.606;2023-01-24T01:25:46;4.20;99.90
43581;DHT22;29175;51.030;4.606;2023-01-24T01:28:11;4.20;99.90
43581;DHT22;29175;51.030;4.606;2023-01-24T01:30:37;4.20;99.90
43581;DHT22;29175;51.030;4.606;2023-01-24T01:33:03;4.20;99.90
43581;DHT22;29175;51.030;4.606;2023-01-24T01:35:29;4.30;99.90
43581;DHT22;29175;51.030;4.606;2023-01-24T01:37:54;4.30;99.90
43581;DHT22;29175;51.030;4.606;2023-01-24T01:40:20;4.30;99.90
43581;DHT22;29175;51.030;4.606;2023-01-24T01:42:55;4.10;99.90
43581;DHT22;29175;51.030;4.606;2023-01-24T01:51:28;4.30;99.90
43581;DHT22;29175;51.030;4.606;2023-01-24T01:54:10;4.40;99.90
43581;DHT22;29175;51.030;4.606;2023-01-24T01:56:43;4.20;99.90
43581;DHT22;29175;51.030;4.606;2023-01-24T01:59:18;4.20;99.90
43581;DHT22;29175;51.030;4.606;2023-01-24T02:01:44;4.30;99.90
43581;DHT22;29175;51.030;4.606;2023-01-24T02:04:14;4.50;99.90
43581;DHT22;29175;51.030;4.606;2023-01-24T02:07:02;4.40;99.90
43581;DHT22;29175;51.030;4.606;2023-01-24T02:09:34;4.10;99.90
43581;DHT22;29175;51.030;4.606;2023-01-24T02:12:05;4.20;99.90
43581;DHT22;29175;51.030;4.606;2023-01-24T02:14:33;4.10;99.90
43581;DHT22;29175;51.030;4.606;2023-01-24T02:17:19;4.20;99.90
43581;DHT22;29175;51.030;4.606;2023-01-24T02:28:29;4.40;99.90
43581;DHT22;29175;51.030;4.606;2023-01-24T02:30:59;4.20;99.90
43581;DHT22;29175;51.030;4.606;2023-01-24T02:33:26;4.20;99.90
43581;DHT22;29175;51.030;4.606;2023-01-24T02:38:39;4.10;99.90
43581;DHT22;29175;51.030;4.606;2023-01-24T02:41:07;4.10;99.90
43581;DHT22;29175;51.030;4.606;2023-01-24T02:43:44;4.10;99.90
43581;DHT22;29175;51.030;4.606;2023-01-24T02:46:11;3.80;99.90
43581;DHT22;29175;51.030;4.606;2023-01-24T02:48:37;3.90;99.90
43581;DHT22;29175;51.030;4.606;2023-01-24T02:51:03;3.80;99.90
43581;DHT22;29175;51.030;4.606;2023-01-24T02:53:47;4.20;99.90
43581;DHT22;29175;51.030;4.606;2023-01-24T02:56:13;4.10;99.90
43581;DHT22;29175;51.030;4.606;2023-01-24T02:58:57;4.10;99.90
43581;DHT22;29175;51.030;4.606;2023-01-24T03:01:23;4.10;99.90
43581;DHT22;29175;51.030;4.606;2023-01-24T03:03:50;4.10;99.90
43581;DHT22;29175;51.030;4.606;2023-01-24T03:06:17;4.10;99.90
43581;DHT22;29175;51.030;4.606;2023-01-24T03:08:43;4.30;99.90
43581;DHT22;29175;51.030;4.606;2023-01-24T03:11:10;4.20;99.90
43581;DHT22;29175;51.030;4.606;2023-01-24T03:13:37;4.30;99.90
43581;DHT22;29175;51.030;4.606;2023-01-24T03:16:22;4.00;99.90
43581;DHT22;29175;51.030;4.606;2023-01-24T03:19:07;4.00;99.90
43581;DHT22;29175;51.030;4.606;2023-01-24T03:21:51;4.10;99.90
43581;DHT22;29175;51.030;4.606;2023-01-24T03:24:36;3.90;99.90
43581;DHT22;29175;51.030;4.606;2023-01-24T03:27:21;3.90;99.90
43581;DHT22;29175;51.030;4.606;2023-01-24T03:30:06;3.80;99.90
43581;DHT22;29175;51.030;4.606;2023-01-24T03:32:51;3.90;99.90
43581;DHT22;29175;51.030;4.606;2023-01-24T03:35:36;4.10;99.90
43581;DHT22;29175;51.030;4.606;2023-01-24T03:38:01;4.10;99.90
43581;DHT22;29175;51.030;4.606;2023-01-24T03:41:05;4.10;99.90
43581;DHT22;29175;51.030;4.606;2023-01-24T03:43:31;3.80;99.90
43581;DHT22;29175;51.030;4.606;2023-01-24T03:45:58;3.90;99.90
43581;DHT22;29175;51.030;4.606;2023-01-24T03:48:23;4.10;99.90
43581;DHT22;29175;51.030;4.606;2023-01-24T03:50:52;4.10;99.90
43581;DHT22;29175;51.030;4.606;2023-01-24T03:53:37;4.00;99.90
43581;DHT22;29175;51.030;4.606;2023-01-24T03:56:03;4.00;99.90
43581;DHT22;29175;51.030;4.606;2023-01-24T03:58:30;3.80;99.90
43581;DHT22;29175;51.030;4.606;2023-01-24T04:00:57;3.70;99.90
43581;DHT22;29175;51.030;4.606;2023-01-24T04:03:23;3.70;99.90
43581;DHT22;29175;51.030;4.606;2023-01-24T04:05:49;3.90;99.90
43581;DHT22;29175;51.030;4.606;2023-01-24T04:08:16;3.80;99.90
43581;DHT22;29175;51.030;4.606;2023-01-24T04:10:42;3.90;99.90
43581;DHT22;29175;51.030;4.606;2023-01-24T04:13:09;4.00;99.90
43581;DHT22;29175;51.030;4.606;2023-01-24T04:15:35;4.00;99.90
43581;DHT22;29175;51.030;4.606;2023-01-24T04:18:02;4.20;99.90
43581;DHT22;29175;51.030;4.606;2023-01-24T04:20:31;4.10;99.90
43581;DHT22;29175;51.030;4.606;2023-01-24T04:23:00;4.10;99.90
43581;DHT22;29175;51.030;4.606;2023-01-24T04:25:27;4.30;99.90
43581;DHT22;29175;51.030;4.606;2023-01-24T04:27:53;4.40;99.90
43581;DHT22;29175;51.030;4.606;2023-01-24T04:30:19;4.20;99.90
43581;DHT22;29175;51.030;4.606;2023-01-24T04:32:45;3.70;99.90
43581;DHT22;29175;51.030;4.606;2023-01-24T04:35:16;3.80;99.90
43581;DHT22;29175;51.030;4.606;2023-01-24T04:37:42;3.70;99.90
43581;DHT22;29175;51.030;4.606;2023-01-24T04:40:09;4.10;99.90
43581;DHT22;29175;51.030;4.606;2023-01-24T04:42:34;4.10;99.90
43581;DHT22;29175;51.030;4.606;2023-01-24T04:45:02;4.30;99.90
43581;DHT22;29175;51.030;4.606;2023-01-24T04:47:28;4.40;99.90
43581;DHT22;29175;51.030;4.606;2023-01-24T04:49:54;4.30;99.90
43581;DHT22;29175;51.030;4.606;2023-01-24T04:52:19;4.60;99.90
43581;DHT22;29175;51.030;4.606;2023-01-24T04:54:45;4.70;99.90
43581;DHT22;29175;51.030;4.606;2023-01-24T04:57:12;4.60;99.90
43581;DHT22;29175;51.030;4.606;2023-01-24T04:59:38;4.30;99.90
43581;DHT22;29175;51.030;4.606;2023-01-24T05:02:03;4.00;99.90
43581;DHT22;29175;51.030;4.606;2023-01-24T05:04:30;3.90;99.90
43581;DHT22;29175;51.030;4.606;2023-01-24T05:06:56;3.80;99.90
43581;DHT22;29175;51.030;4.606;2023-01-24T05:09:21;3.80;99.90
43581;DHT22;29175;51.030;4.606;2023-01-24T05:11:47;3.70;99.90
43581;DHT22;29175;51.030;4.606;2023-01-24T05:14:13;3.70;99.90
43581;DHT22;29175;51.030;4.606;2023-01-24T05:16:39;3.80;99.90
43581;DHT22;29175;51.030;4.606;2023-01-24T05:19:05;3.90;99.90
43581;DHT22;29175;51.030;4.606;2023-01-24T05:21:31;3.80;99.90
43581;DHT22;29175;51.030;4.606;2023-01-24T05:23:57;3.80;99.90
43581;DHT22;29175;51.030;4.606;2023-01-24T05:26:25;4.00;99.90
43581;DHT22;29175;51.030;4.606;2023-01-24T05:28:51;4.10;99.90
43581;DHT22;29175;51.030;4.606;2023-01-24T05:31:18;4.30;99.90
43581;DHT22;29175;51.030;4.606;2023-01-24T05:33:44;4.20;99.90
43581;DHT22;29175;51.030;4.606;2023-01-24T05:36:13;4.50;99.90
43581;DHT22;29175;51.030;4.606;2023-01-24T05:38:39;4.40;99.90
43581;DHT22;29175;51.030;4.606;2023-01-24T05:41:08;4.30;99.90
43581;DHT22;29175;51.030;4.606;2023-01-24T05:43:34;4.00;99.90
43581;DHT22;29175;51.030;4.606;2023-01-24T05:46:05;3.80;99.90
43581;DHT22;29175;51.030;4.606;2023-01-24T05:48:31;3.80;99.90
43581;DHT22;29175;51.030;4.606;2023-01-24T05:51:04;3.80;99.90
43581;DHT22;29175;51.030;4.606;2023-01-24T05:53:31;4.00;99.90
43581;DHT22;29175;51.030;4.606;2023-01-24T05:56:00;4.30;99.90
43581;DHT22;29175;51.030;4.606;2023-01-24T05:58:27;4.50;99.90
43581;DHT22;29175;51.030;4.606;2023-01-24T06:00:54;4.30;99.90
43581;DHT22;29175;51.030;4.606;2023-01-24T06:03:20;4.40;99.90
43581;DHT22;29175;51.030;4.606;2023-01-24T06:05:51;4.40;99.90
43581;DHT22;29175;51.030;4.606;2023-01-24T06:08:17;4.60;99.90
43581;DHT22;29175;51.030;4.606;2023-01-24T06:10:43;4.60;99.90
43581;DHT22;29175;51.030;4.606;2023-01-24T06:13:09;4.40;99.90
43581;DHT22;29175;51.030;4.606;2023-01-24T06:15:36;4.20;99.90
43581;DHT22;29175;51.030;4.606;2023-01-24T06:18:02;4.50;99.90
43581;DHT22;29175;51.030;4.606;2023-01-24T06:20:28;4.70;99.90
43581;DHT22;29175;51.030;4.606;2023-01-24T06:22:59;4.90;99.90
43581;DHT22;29175;51.030;4.606;2023-01-24T06:25:27;4.90;99.90
43581;DHT22;29175;51.030;4.606;2023-01-24T06:27:56;5.00;99.90
43581;DHT22;29175;51.030;4.606;2023-01-24T06:30:22;4.90;99.90
43581;DHT22;29175;51.030;4.606;2023-01-24T06:38:23;4.20;99.90
43581;DHT22;29175;51.030;4.606;2023-01-24T06:40:55;4.30;99.90
43581;DHT22;29175;51.030;4.606;2023-01-24T06:43:21;4.60;99.90
43581;DHT22;29175;51.030;4.606;2023-01-24T06:45:47;4.20;99.90
43581;DHT22;29175;51.030;4.606;2023-01-24T06:48:13;3.90;99.90
43581;DHT22;29175;51.030;4.606;2023-01-24T06:50:39;4.00;99.90
43581;DHT22;29175;51.030;4.606;2023-01-24T06:53:05;3.80;99.90
43581;DHT22;29175;51.030;4.606;2023-01-24T06:55:30;3.80;99.90
43581;DHT22;29175;51.030;4.606;2023-01-24T06:58:00;3.90;99.90
43581;DHT22;29175;51.030;4.606;2023-01-24T07:00:28;3.80;99.90
43581;DHT22;29175;51.030;4.606;2023-01-24T07:03:04;3.80;99.90
43581;DHT22;29175;51.030;4.606;2023-01-24T07:05:35;3.60;99.90
43581;DHT22;29175;51.030;4.606;2023-01-24T07:08:02;3.70;99.90
43581;DHT22;29175;51.030;4.606;2023-01-24T07:10:28;3.70;99.90
43581;DHT22;29175;51.030;4.606;2023-01-24T07:12:54;3.70;99.90
43581;DHT22;29175;51.030;4.606;2023-01-24T07:15:20;3.50;99.90
43581;DHT22;29175;51.030;4.606;2023-01-24T07:17:46;3.60;99.90
43581;DHT22;29175;51.030;4.606;2023-01-24T07:20:12;3.70;99.90
43581;DHT22;29175;51.030;4.606;2023-01-24T07:22:40;3.80;99.90
43581;DHT22;29175;51.030;4.606;2023-01-24T07:25:15;4.00;99.90
43581;DHT22;29175;51.030;4.606;2023-01-24T07:27:42;4.00;99.90
43581;DHT22;29175;51.030;4.606;2023-01-24T07:30:09;4.00;99.90
43581;DHT22;29175;51.030;4.606;2023-01-24T07:32:35;4.10;99.90
43581;DHT22;29175;51.030;4.606;2023-01-24T07:35:01;3.90;99.90
43581;DHT22;29175;51.030;4.606;2023-01-24T07:37:27;3.70;99.90
43581;DHT22;29175;51.030;4.606;2023-01-24T07:39:53;4.00;99.90
43581;DHT22;29175;51.030;4.606;2023-01-24T07:42:18;3.80;99.90
43581;DHT22;29175;51.030;4.606;2023-01-24T07:44:44;3.60;99.90
43581;DHT22;29175;51.030;4.606;2023-01-24T07:47:10;3.60;99.90
43581;DHT22;29175;51.030;4.606;2023-01-24T07:49:36;3.40;99.90
43581;DHT22;29175;51.030;4.606;2023-01-24T07:52:01;3.60;99.90
43581;DHT22;29175;51.030;4.606;2023-01-24T07:54:27;3.50;99.90
43581;DHT22;29175;51.030;4.606;2023-01-24T07:56:53;3.70;99.90
43581;DHT22;29175;51.030;4.606;2023-01-24T07:59:19;3.80;99.90
43581;DHT22;29175;51.030;4.606;2023-01-24T08:01:44;3.60;99.90
43581;DHT22;29175;51.030;4.606;2023-01-24T08:04:10;3.70;99.90
43581;DHT22;29175;51.030;4.606;2023-01-24T08:06:36;3.70;99.90
43581;DHT22;29175;51.030;4.606;2023-01-24T08:09:03;3.80;99.90
43581;DHT22;29175;51.030;4.606;2023-01-24T08:11:29;3.80;99.90
43581;DHT22;29175;51.030;4.606;2023-01-24T08:13:55;3.80;99.90
43581;DHT22;29175;51.030;4.606;2023-01-24T08:16:20;3.90;99.90
43581;DHT22;29175;51.030;4.606;2023-01-24T08:18:51;4.10;99.90
43581;DHT22;29175;51.030;4.606;2023-01-24T08:21:17;4.00;99.90
43581;DHT22;29175;51.030;4.606;2023-01-24T08:23:43;3.90;99.90
43581;DHT22;29175;51.030;4.606;2023-01-24T08:26:08;3.80;99.90
43581;DHT22;29175;51.030;4.606;2023-01-24T08:28:34;3.80;99.90
43581;DHT22;29175;51.030;4.606;2023-01-24T08:31:00;3.80;99.90
43581;DHT22;29175;51.030;4.606;2023-01-24T08:33:26;3.90;99.90
43581;DHT22;29175;51.030;4.606;2023-01-24T08:35:52;3.60;99.90
43581;DHT22;29175;51.030;4.606;2023-01-24T08:38:18;3.50;99.90
43581;DHT22;29175;51.030;4.606;2023-01-24T08:40:44;3.70;99.90
43581;DHT22;29175;51.030;4.606;2023-01-24T08:43:09;3.50;99.90
43581;DHT22;29175;51.030;4.606;2023-01-24T08:45:35;3.60;99.90
43581;DHT22;29175;51.030;4.606;2023-01-24T08:48:01;3.70;99.90
43581;DHT22;29175;51.030;4.606;2023-01-24T08:50:27;4.00;99.90
43581;DHT22;29175;51.030;4.606;2023-01-24T08:52:56;3.60;99.90
43581;DHT22;29175;51.030;4.606;2023-01-24T08:55:23;3.70;99.90
43581;DHT22;29175;51.030;4.606;2023-01-24T08:57:49;3.90;99.90
43581;DHT22;29175;51.030;4.606;2023-01-24T09:00:16;4.00;99.90
43581;DHT22;29175;51.030;4.606;2023-01-24T09:02:41;4.20;99.90
43581;DHT22;29175;51.030;4.606;2023-01-24T09:05:08;3.90;99.90
43581;DHT22;29175;51.030;4.606;2023-01-24T09:07:35;4.00;99.90
43581;DHT22;29175;51.030;4.606;2023-01-24T09:10:06;4.00;99.90
43581;DHT22;29175;51.030;4.606;2023-01-24T09:12:32;3.90;99.90
43581;DHT22;29175;51.030;4.606;2023-01-24T09:14:59;4.00;99.90
43581;DHT22;29175;51.030;4.606;2023-01-24T09:17:25;4.30;99.90
43581;DHT22;29175;51.030;4.606;2023-01-24T09:19:50;4.40;99.90
43581;DHT22;29175;51.030;4.606;2023-01-24T09:22:16;4.40;99.90
43581;DHT22;29175;51.030;4.606;2023-01-24T09:24:42;4.50;99.90
43581;DHT22;29175;51.030;4.606;2023-01-24T09:27:12;4.20;99.90
43581;DHT22;29175;51.030;4.606;2023-01-24T09:29:38;3.80;99.90
43581;DHT22;29175;51.030;4.606;2023-01-24T09:32:03;3.40;99.90
43581;DHT22;29175;51.030;4.606;2023-01-24T09:34:29;3.60;99.90
43581;DHT22;29175;51.030;4.606;2023-01-24T09:36:55;3.80;99.90
43581;DHT22;29175;51.030;4.606;2023-01-24T09:39:21;3.90;99.90
43581;DHT22;29175;51.030;4.606;2023-01-24T09:42:41;4.20;99.90
43581;DHT22;29175;51.030;4.606;2023-01-24T09:45:00;4.20;99.90
43581;DHT22;29175;51.030;4.606;2023-01-24T09:47:50;4.30;99.90
43581;DHT22;29175;51.030;4.606;2023-01-24T09:50:51;4.40;99.90
43581;DHT22;29175;51.030;4.606;2023-01-24T09:53:26;4.30;99.90
43581;DHT22;29175;51.030;4.606;2023-01-24T09:55:53;3.90;99.90
43581;DHT22;29175;51.030;4.606;2023-01-24T09:58:41;3.50;99.90
43581;DHT22;29175;51.030;4.606;2023-01-24T10:01:11;3.70;99.90
43581;DHT22;29175;51.030;4.606;2023-01-24T10:03:38;3.90;99.90
43581;DHT22;29175;51.030;4.606;2023-01-24T10:06:25;4.00;99.90
43581;DHT22;29175;51.030;4.606;2023-01-24T10:09:13;4.20;99.90
43581;DHT22;29175;51.030;4.606;2023-01-24T10:12:13;4.40;99.90
43581;DHT22;29175;51.030;4.606;2023-01-24T10:17:38;4.60;99.90
43581;DHT22;29175;51.030;4.606;2023-01-24T10:25:26;4.70;99.90
43581;DHT22;29175;51.030;4.606;2023-01-24T10:27:55;4.80;99.90
43581;DHT22;29175;51.030;4.606;2023-01-24T10:30:43;4.10;99.90
43581;DHT22;29175;51.030;4.606;2023-01-24T10:33:17;4.00;99.90
43581;DHT22;29175;51.030;4.606;2023-01-24T10:35:53;4.20;99.90
43581;DHT22;29175;51.030;4.606;2023-01-24T10:38:20;4.10;99.90
43581;DHT22;29175;51.030;4.606;2023-01-24T10:41:09;3.90;99.90
43581;DHT22;29175;51.030;4.606;2023-01-24T10:43:38;3.70;99.90
43581;DHT22;29175;51.030;4.606;2023-01-24T10:46:52;3.80;99.90
43581;DHT22;29175;51.030;4.606;2023-01-24T10:49:27;4.20;99.90
43581;DHT22;29175;51.030;4.606;2023-01-24T10:52:18;4.30;99.90
43581;DHT22;29175;51.030;4.606;2023-01-24T10:54:46;3.80;99.90
43581;DHT22;29175;51.030;4.606;2023-01-24T10:59:51;3.90;99.90
43581;DHT22;29175;51.030;4.606;2023-01-24T11:02:22;4.20;99.90
43581;DHT22;29175;51.030;4.606;2023-01-24T11:05:04;4.40;99.90
43581;DHT22;29175;51.030;4.606;2023-01-24T11:07:35;4.40;99.90
43581;DHT22;29175;51.030;4.606;2023-01-24T11:12:53;4.30;99.90
43581;DHT22;29175;51.030;4.606;2023-01-24T11:15:25;3.90;99.90
43581;DHT22;29175;51.030;4.606;2023-01-24T11:18:16;4.20;99.90
43581;DHT22;29175;51.030;4.606;2023-01-24T11:20:45;4.20;99.90
43581;DHT22;29175;51.030;4.606;2023-01-24T11:23:15;4.50;99.90
43581;DHT22;29175;51.030;4.606;2023-01-24T11:25:56;4.70;99.90
43581;DHT22;29175;51.030;4.606;2023-01-24T11:28:31;4.80;99.90
43581;DHT22;29175;51.030;4.606;2023-01-24T11:31:04;4.70;99.90
43581;DHT22;29175;51.030;4.606;2023-01-24T11:33:50;4.60;99.90
43581;DHT22;29175;51.030;4.606;2023-01-24T11:41:52;4.50;99.90
43581;DHT22;29175;51.030;4.606;2023-01-24T11:47:21;4.70;99.90
43581;DHT22;29175;51.030;4.606;2023-01-24T12:01:17;4.10;99.90
43581;DHT22;29175;51.030;4.606;2023-01-24T12:07:02;4.20;99.90
43581;DHT22;29175;51.030;4.606;2023-01-24T12:12:32;4.70;99.90
43581;DHT22;29175;51.030;4.606;2023-01-24T12:18:06;4.50;99.90
43581;DHT22;29175;51.030;4.606;2023-01-24T12:23:44;4.70;99.90
43581;DHT22;29175;51.030;4.606;2023-01-24T12:26:17;4.30;99.90
43581;DHT22;29175;51.030;4.606;2023-01-24T12:32:11;4.40;99.90
43581;DHT22;29175;51.030;4.606;2023-01-24T12:35:38;4.60;99.90
43581;DHT22;29175;51.030;4.606;2023-01-24T12:38:10;4.80;99.90
43581;DHT22;29175;51.030;4.606;2023-01-24T12:41:20;4.70;99.90
43581;DHT22;29175;51.030;4.606;2023-01-24T12:43:58;4.70;99.90
43581;DHT22;29175;51.030;4.606;2023-01-24T12:46:37;4.80;99.90
43581;DHT22;29175;51.030;4.606;2023-01-24T12:55:22;5.00;99.90
43581;DHT22;29175;51.030;4.606;2023-01-24T13:05:55;5.10;99.90
43581;DHT22;29175;51.030;4.606;2023-01-24T13:11:11;4.60;99.90
43581;DHT22;29175;51.030;4.606;2023-01-24T13:13:47;4.30;99.90
43581;DHT22;29175;51.030;4.606;2023-01-24T13:33:12;4.80;99.90
43581;DHT22;29175;51.030;4.606;2023-01-24T13:35:49;4.70;99.90
43581;DHT22;29175;51.030;4.606;2023-01-24T13:38:22;5.10;99.90
43581;DHT22;29175;51.030;4.606;2023-01-24T13:41:03;5.20;99.90
43581;DHT22;29175;51.030;4.606;2023-01-24T13:43:57;5.20;99.90
43581;DHT22;29175;51.030;4.606;2023-01-24T13:49:32;5.10;99.90
43581;DHT22;29175;51.030;4.606;2023-01-24T13:52:00;5.00;99.90
43581;DHT22;29175;51.030;4.606;2023-01-24T13:57:33;5.40;99.90
43581;DHT22;29175;51.030;4.606;2023-01-24T14:02:40;5.40;99.90
43581;DHT22;29175;51.030;4.606;2023-01-24T14:10:36;5.10;99.90
43581;DHT22;29175;51.030;4.606;2023-01-24T14:13:03;5.30;99.90
43581;DHT22;29175;51.030;4.606;2023-01-24T14:15:40;5.20;99.90
43581;DHT22;29175;51.030;4.606;2023-01-24T14:21:16;4.90;99.90
43581;DHT22;29175;51.030;4.606;2023-01-24T14:23:44;5.00;99.90
43581;DHT22;29175;51.030;4.606;2023-01-24T14:26:15;5.00;99.90
43581;DHT22;29175;51.030;4.606;2023-01-24T14:28:48;5.00;99.90
43581;DHT22;29175;51.030;4.606;2023-01-24T14:31:36;5.00;99.90
43581;DHT22;29175;51.030;4.606;2023-01-24T14:34:20;5.10;99.90
43581;DHT22;29175;51.030;4.606;2023-01-24T14:36:58;5.10;99.90
43581;DHT22;29175;51.030;4.606;2023-01-24T14:39:26;5.40;99.90
43581;DHT22;29175;51.030;4.606;2023-01-24T14:41:54;4.90;99.90
43581;DHT22;29175;51.030;4.606;2023-01-24T14:44:36;4.70;99.90
43581;DHT22;29175;51.030;4.606;2023-01-24T14:47:22;4.00;99.90
43581;DHT22;29175;51.030;4.606;2023-01-24T14:49:51;3.90;99.90
43581;DHT22;29175;51.030;4.606;2023-01-24T14:52:22;4.20;99.90
43581;DHT22;29175;51.030;4.606;2023-01-24T14:57:32;4.50;99.90
43581;DHT22;29175;51.030;4.606;2023-01-24T15:00:13;4.50;99.90
43581;DHT22;29175;51.030;4.606;2023-01-24T15:03:00;4.70;99.90
43581;DHT22;29175;51.030;4.606;2023-01-24T15:05:29;4.70;99.90
43581;DHT22;29175;51.030;4.606;2023-01-24T15:07:57;4.90;99.90
43581;DHT22;29175;51.030;4.606;2023-01-24T15:10:25;5.20;99.90
43581;DHT22;29175;51.030;4.606;2023-01-24T15:12:53;5.00;99.90
43581;DHT22;29175;51.030;4.606;2023-01-24T15:15:20;4.40;99.90
43581;DHT22;29175;51.030;4.606;2023-01-24T15:17:48;4.70;99.90
43581;DHT22;29175;51.030;4.606;2023-01-24T15:20:19;4.50;99.90
43581;DHT22;29175;51.030;4.606;2023-01-24T15:22:52;4.10;99.90
43581;DHT22;29175;51.030;4.606;2023-01-24T15:25:32;3.70;99.90
43581;DHT22;29175;51.030;4.606;2023-01-24T15:28:10;3.90;99.90
43581;DHT22;29175;51.030;4.606;2023-01-24T15:30:36;4.10;99.90
43581;DHT22;29175;51.030;4.606;2023-01-24T15:33:08;3.80;99.90
43581;DHT22;29175;51.030;4.606;2023-01-24T15:35:38;3.70;99.90
43581;DHT22;29175;51.030;4.606;2023-01-24T15:38:14;4.10;99.90
43581;DHT22;29175;51.030;4.606;2023-01-24T15:40:53;4.20;99.90
43581;DHT22;29175;51.030;4.606;2023-01-24T15:54:39;4.40;99.90
43581;DHT22;29175;51.030;4.606;2023-01-24T15:57:32;4.50;99.90
43581;DHT22;29175;51.030;4.606;2023-01-24T16:00:03;4.50;99.90
43581;DHT22;29175;51.030;4.606;2023-01-24T16:02:46;4.50;99.90
43581;DHT22;29175;51.030;4.606;2023-01-24T16:05:18;4.80;99.90
43581;DHT22;29175;51.030;4.606;2023-01-24T16:07:44;4.30;99.90
43581;DHT22;29175;51.030;4.606;2023-01-24T16:10:14;4.60;99.90
43581;DHT22;29175;51.030;4.606;2023-01-24T16:12:41;4.40;99.90
43581;DHT22;29175;51.030;4.606;2023-01-24T16:15:15;4.10;99.90
43581;DHT22;29175;51.030;4.606;2023-01-24T16:17:41;4.10;99.90
43581;DHT22;29175;51.030;4.606;2023-01-24T16:20:22;4.10;99.90
43581;DHT22;29175;51.030;4.606;2023-01-24T16:22:48;4.60;99.90
43581;DHT22;29175;51.030;4.606;2023-01-24T16:25:15;4.50;99.90
43581;DHT22;29175;51.030;4.606;2023-01-24T16:27:41;4.20;99.90
43581;DHT22;29175;51.030;4.606;2023-01-24T16:30:21;4.40;99.90
43581;DHT22;29175;51.030;4.606;2023-01-24T16:32:47;4.30;99.90
43581;DHT22;29175;51.030;4.606;2023-01-24T16:35:13;3.70;99.90
43581;DHT22;29175;51.030;4.606;2023-01-24T16:37:39;3.50;99.90
43581;DHT22;29175;51.030;4.606;2023-01-24T16:40:05;3.50;99.90
43581;DHT22;29175;51.030;4.606;2023-01-24T16:42:31;3.40;99.90
43581;DHT22;29175;51.030;4.606;2023-01-24T16:44:59;3.50;99.90
43581;DHT22;29175;51.030;4.606;2023-01-24T16:47:26;3.60;99.90
43581;DHT22;29175;51.030;4.606;2023-01-24T16:49:54;3.10;99.90
43581;DHT22;29175;51.030;4.606;2023-01-24T16:52:20;3.00;99.90
43581;DHT22;29175;51.030;4.606;2023-01-24T16:54:46;3.20;99.90
43581;DHT22;29175;51.030;4.606;2023-01-24T16:57:12;3.00;99.90
43581;DHT22;29175;51.030;4.606;2023-01-24T16:59:38;2.80;99.90
43581;DHT22;29175;51.030;4.606;2023-01-24T17:02:04;3.10;99.90
43581;DHT22;29175;51.030;4.606;2023-01-24T17:04:30;3.30;99.90
43581;DHT22;29175;51.030;4.606;2023-01-24T17:06:56;3.10;99.90
43581;DHT22;29175;51.030;4.606;2023-01-24T17:09:29;3.10;99.90
43581;DHT22;29175;51.030;4.606;2023-01-24T17:11:55;3.30;99.90
43581;DHT22;29175;51.030;4.606;2023-01-24T17:14:21;3.30;99.90
43581;DHT22;29175;51.030;4.606;2023-01-24T17:16:48;3.60;99.90
43581;DHT22;29175;51.030;4.606;2023-01-24T17:19:14;3.90;99.90
43581;DHT22;29175;51.030;4.606;2023-01-24T17:21:40;3.90;99.90
43581;DHT22;29175;51.030;4.606;2023-01-24T17:24:06;4.30;99.90
43581;DHT22;29175;51.030;4.606;2023-01-24T17:26:32;4.20;99.90
43581;DHT22;29175;51.030;4.606;2023-01-24T17:28:58;4.10;99.90
43581;DHT22;29175;51.030;4.606;2023-01-24T17:31:24;3.60;99.90
43581;DHT22;29175;51.030;4.606;2023-01-24T17:33:49;3.40;99.90
43581;DHT22;29175;51.030;4.606;2023-01-24T17:36:17;3.20;99.90
43581;DHT22;29175;51.030;4.606;2023-01-24T17:38:43;3.00;99.90
43581;DHT22;29175;51.030;4.606;2023-01-24T17:41:14;3.10;99.90
43581;DHT22;29175;51.030;4.606;2023-01-24T17:43:40;3.20;99.90
43581;DHT22;29175;51.030;4.606;2023-01-24T17:46:06;3.40;99.90
43581;DHT22;29175;51.030;4.606;2023-01-24T17:48:33;3.60;99.90
43581;DHT22;29175;51.030;4.606;2023-01-24T17:51:05;4.00;99.90
43581;DHT22;29175;51.030;4.606;2023-01-24T17:53:31;3.80;99.90
43581;DHT22;29175;51.030;4.606;2023-01-24T17:55:56;3.70;99.90
43581;DHT22;29175;51.030;4.606;2023-01-24T17:58:22;3.60;99.90
43581;DHT22;29175;51.030;4.606;2023-01-24T18:00:51;3.80;99.90
43581;DHT22;29175;51.030;4.606;2023-01-24T18:03:17;3.90;99.90
43581;DHT22;29175;51.030;4.606;2023-01-24T18:05:42;3.30;99.90
43581;DHT22;29175;51.030;4.606;2023-01-24T18:08:08;3.30;99.90
43581;DHT22;29175;51.030;4.606;2023-01-24T18:10:37;3.70;99.90
43581;DHT22;29175;51.030;4.606;2023-01-24T18:13:03;3.60;99.90
43581;DHT22;29175;51.030;4.606;2023-01-24T18:15:29;3.50;99.90
43581;DHT22;29175;51.030;4.606;2023-01-24T18:17:54;3.50;99.90
43581;DHT22;29175;51.030;4.606;2023-01-24T18:20:20;3.50;99.90